sensor_id;sensor_type;location;lat;lon;timestamp;P1;durP1;ratioP1;P2;durP2;ratioP2
43554;SDS011;35085;40.398;-3.702;2024-02-15T00:10:45;9.77;;;4.32;;
43554;SDS011;35085;40.398;-3.702;2024-02-15T00:20:54;9.75;;;4.82;;
43554;SDS011;35085;40.398;-3.702;2024-02-15T00:30:55;7.55;;;3.83;;
43554;SDS011;35085;40.398;-3.702;2024-02-15T00:41:07;6.72;;;4.28;;
43554;SDS011;35085;40.398;-3.702;2024-02-15T00:51:16;10.70;;;4.90;;
43554;SDS011;35085;40.398;-3.702;2024-02-15T01:01:24;7.95;;;3.40;;
43554;SDS011;35085;40.398;-3.702;2024-02-15T01:11:33;8.60;;;3.65;;
43554;SDS011;35085;40.398;-3.702;2024-02-15T01:21:39;7.60;;;3.70;;
43554;SDS011;35085;40.398;-3.702;2024-02-15T01:31:40;7.75;;;3.80;;
43554;SDS011;35085;40.398;-3.702;2024-02-15T01:51:57;6.53;;;3.63;;
43554;SDS011;35085;40.398;-3.702;2024-02-15T02:02:03;9.45;;;3.65;;
43554;SDS011;35085;40.398;-3.702;2024-02-15T02:12:12;7.90;;;3.75;;
43554;SDS011;35085;40.398;-3.702;2024-02-15T02:22:21;6.88;;;3.45;;
43554;SDS011;35085;40.398;-3.702;2024-02-15T02:32:29;5.95;;;2.95;;
43554;SDS011;35085;40.398;-3.702;2024-02-15T02:42:54;6.43;;;3.50;;
43554;SDS011;35085;40.398;-3.702;2024-02-15T02:53:04;7.00;;;3.80;;
43554;SDS011;35085;40.398;-3.702;2024-02-15T03:03:13;8.85;;;3.92;;
43554;SDS011;35085;40.398;-3.702;2024-02-15T03:13:20;7.07;;;3.60;;
43554;SDS011;35085;40.398;-3.702;2024-02-15T03:23:30;5.20;;;3.17;;
43554;SDS011;35085;40.398;-3.702;2024-02-15T03:33:39;8.23;;;3.33;;
43554;SDS011;35085;40.398;-3.702;2024-02-15T03:43:48;6.43;;;2.88;;
43554;SDS011;35085;40.398;-3.702;2024-02-15T03:53:56;5.68;;;2.80;;
43554;SDS011;35085;40.398;-3.702;2024-02-15T04:04:02;5.47;;;2.63;;
43554;SDS011;35085;40.398;-3.702;2024-02-15T04:14:03;5.72;;;3.10;;
43554;SDS011;35085;40.398;-3.702;2024-02-15T04:24:13;6.90;;;3.10;;
43554;SDS011;35085;40.398;-3.702;2024-02-15T04:34:22;6.00;;;3.13;;
43554;SDS011;35085;40.398;-3.702;2024-02-15T04:44:33;7.53;;;2.97;;
43554;SDS011;35085;40.398;-3.702;2024-02-15T04:54:42;5.78;;;3.08;;
43554;SDS011;35085;40.398;-3.702;2024-02-15T05:04:50;5.38;;;3.10;;
43554;SDS011;35085;40.398;-3.702;2024-02-15T05:14:57;5.88;;;3.50;;
43554;SDS011;35085;40.398;-3.702;2024-02-15T05:25:08;5.03;;;2.95;;
43554;SDS011;35085;40.398;-3.702;2024-02-15T05:35:09;6.30;;;2.95;;
43554;SDS011;35085;40.398;-3.702;2024-02-15T05:55:32;7.68;;;3.47;;
43554;SDS011;35085;40.398;-3.702;2024-02-15T06:05:45;6.28;;;3.53;;
43554;SDS011;35085;40.398;-3.702;2024-02-15T06:15:51;7.40;;;3.60;;
43554;SDS011;35085;40.398;-3.702;2024-02-15T06:25:59;5.90;;;3.60;;
43554;SDS011;35085;40.398;-3.702;2024-02-15T06:36:05;8.00;;;3.35;;
43554;SDS011;35085;40.398;-3.702;2024-02-15T06:46:26;7.97;;;3.33;;
43554;SDS011;35085;40.398;-3.702;2024-02-15T06:56:37;5.38;;;3.30;;
43554;SDS011;35085;40.398;-3.702;2024-02-15T07:06:46;5.00;;;2.60;;
43554;SDS011;35085;40.398;-3.702;2024-02-15T07:16:53;6.85;;;2.47;;
43554;SDS011;35085;40.398;-3.702;2024-02-15T07:27:02;7.22;;;2.90;;
43554;SDS011;35085;40.398;-3.702;2024-02-15T07:37:10;5.47;;;2.55;;
43554;SDS011;35085;40.398;-3.702;2024-02-15T07:47:13;7.88;;;2.63;;
43554;SDS011;35085;40.398;-3.702;2024-02-15T07:57:21;4.47;;;2.05;;
43554;SDS011;35085;40.398;-3.702;2024-02-15T08:07:23;7.18;;;2.70;;
43554;SDS011;35085;40.398;-3.702;2024-02-15T08:17:29;8.13;;;2.95;;
43554;SDS011;35085;40.398;-3.702;2024-02-15T08:27:39;4.25;;;2.25;;
43554;SDS011;35085;40.398;-3.702;2024-02-15T08:37:49;8.23;;;3.38;;
43554;SDS011;35085;40.398;-3.702;2024-02-15T08:47:57;8.75;;;3.72;;
43554;SDS011;35085;40.398;-3.702;2024-02-15T08:58:05;6.45;;;3.20;;
43554;SDS011;35085;40.398;-3.702;2024-02-15T09:08:07;9.80;;;3.60;;
43554;SDS011;35085;40.398;-3.702;2024-02-15T09:18:18;13.18;;;4.60;;
43554;SDS011;35085;40.398;-3.702;2024-02-15T09:38:26;11.68;;;6.53;;
43554;SDS011;35085;40.398;-3.702;2024-02-15T09:48:36;10.70;;;4.67;;
43554;SDS011;35085;40.398;-3.702;2024-02-15T09:58:47;14.27;;;4.78;;
43554;SDS011;35085;40.398;-3.702;2024-02-15T10:19:09;12.55;;;5.10;;
43554;SDS011;35085;40.398;-3.702;2024-02-15T10:29:12;18.42;;;5.80;;
43554;SDS011;35085;40.398;-3.702;2024-02-15T10:39:18;13.15;;;5.88;;
43554;SDS011;35085;40.398;-3.702;2024-02-15T10:49:28;16.10;;;6.82;;
43554;SDS011;35085;40.398;-3.702;2024-02-15T10:59:49;14.32;;;5.60;;
43554;SDS011;35085;40.398;-3.702;2024-02-15T11:09:55;10.43;;;4.50;;
43554;SDS011;35085;40.398;-3.702;2024-02-15T11:19:57;10.60;;;4.15;;
43554;SDS011;35085;40.398;-3.702;2024-02-15T11:30:07;7.05;;;3.50;;
43554;SDS011;35085;40.398;-3.702;2024-02-15T11:40:24;6.47;;;3.03;;
43554;SDS011;35085;40.398;-3.702;2024-02-15T11:50:35;6.00;;;2.80;;
43554;SDS011;35085;40.398;-3.702;2024-02-15T12:00:40;6.57;;;2.70;;
43554;SDS011;35085;40.398;-3.702;2024-02-15T12:11:02;9.77;;;2.80;;
43554;SDS011;35085;40.398;-3.702;2024-02-15T12:21:24;7.60;;;3.38;;
43554;SDS011;35085;40.398;-3.702;2024-02-15T12:31:36;7.13;;;3.50;;
43554;SDS011;35085;40.398;-3.702;2024-02-15T12:41:47;7.88;;;4.18;;
43554;SDS011;35085;40.398;-3.702;2024-02-15T13:02:19;10.95;;;4.90;;
43554;SDS011;35085;40.398;-3.702;2024-02-15T13:12:30;11.35;;;4.20;;
43554;SDS011;35085;40.398;-3.702;2024-02-15T13:22:42;11.52;;;4.22;;
43554;SDS011;35085;40.398;-3.702;2024-02-15T13:32:51;19.58;;;7.75;;
43554;SDS011;35085;40.398;-3.702;2024-02-15T13:53:10;12.20;;;5.75;;
43554;SDS011;35085;40.398;-3.702;2024-02-15T14:03:15;17.27;;;5.75;;
43554;SDS011;35085;40.398;-3.702;2024-02-15T14:13:20;16.55;;;6.18;;
43554;SDS011;35085;40.398;-3.702;2024-02-15T14:23:26;12.50;;;5.65;;
43554;SDS011;35085;40.398;-3.702;2024-02-15T14:33:36;15.27;;;6.22;;
43554;SDS011;35085;40.398;-3.702;2024-02-15T14:43:46;11.63;;;5.32;;
43554;SDS011;35085;40.398;-3.702;2024-02-15T14:53:49;13.75;;;6.18;;
43554;SDS011;35085;40.398;-3.702;2024-02-15T15:03:54;10.38;;;4.97;;
43554;SDS011;35085;40.398;-3.702;2024-02-15T15:14:03;11.95;;;6.63;;
43554;SDS011;35085;40.398;-3.702;2024-02-15T15:24:11;20.90;;;10.77;;
43554;SDS011;35085;40.398;-3.702;2024-02-15T15:34:22;23.10;;;7.53;;
43554;SDS011;35085;40.398;-3.702;2024-02-15T15:44:30;14.18;;;5.60;;
43554;SDS011;35085;40.398;-3.702;2024-02-15T16:04:43;13.93;;;4.43;;
43554;SDS011;35085;40.398;-3.702;2024-02-15T16:14:46;10.98;;;4.40;;
43554;SDS011;35085;40.398;-3.702;2024-02-15T16:24:57;11.15;;;4.07;;
43554;SDS011;35085;40.398;-3.702;2024-02-15T16:35:06;9.98;;;3.70;;
43554;SDS011;35085;40.398;-3.702;2024-02-15T16:45:15;11.87;;;3.63;;
43554;SDS011;35085;40.398;-3.702;2024-02-15T16:55:24;12.37;;;4.50;;
43554;SDS011;35085;40.398;-3.702;2024-02-15T17:05:31;13.35;;;5.60;;
43554;SDS011;35085;40.398;-3.702;2024-02-15T17:15:35;11.32;;;3.72;;
43554;SDS011;35085;40.398;-3.702;2024-02-15T17:25:43;13.13;;;3.80;;
43554;SDS011;35085;40.398;-3.702;2024-02-15T17:35:51;11.52;;;4.75;;
43554;SDS011;35085;40.398;-3.702;2024-02-15T17:46:00;18.30;;;5.10;;
43554;SDS011;35085;40.398;-3.702;2024-02-15T17:56:09;12.37;;;5.17;;
43554;SDS011;35085;40.398;-3.702;2024-02-15T18:06:18;16.00;;;4.72;;
43554;SDS011;35085;40.398;-3.702;2024-02-15T18:16:28;13.23;;;3.83;;
43554;SDS011;35085;40.398;-3.702;2024-02-15T18:26:36;13.25;;;2.67;;
43554;SDS011;35085;40.398;-3.702;2024-02-15T18:36:46;15.20;;;3.90;;
43554;SDS011;35085;40.398;-3.702;2024-02-15T18:46:53;10.02;;;3.00;;
43554;SDS011;35085;40.398;-3.702;2024-02-15T18:57:01;7.70;;;2.80;;
43554;SDS011;35085;40.398;-3.702;2024-02-15T19:07:10;10.20;;;2.58;;
43554;SDS011;35085;40.398;-3.702;2024-02-15T19:17:16;4.55;;;1.45;;
43554;SDS011;35085;40.398;-3.702;2024-02-15T19:27:27;6.65;;;3.25;;
43554;SDS011;35085;40.398;-3.702;2024-02-15T19:37:35;5.32;;;2.13;;
43554;SDS011;35085;40.398;-3.702;2024-02-15T19:47:37;6.80;;;2.05;;
43554;SDS011;35085;40.398;-3.702;2024-02-15T19:57:47;3.72;;;1.42;;
43554;SDS011;35085;40.398;-3.702;2024-02-15T20:07:57;5.90;;;2.08;;
43554;SDS011;35085;40.398;-3.702;2024-02-15T20:18:07;6.82;;;2.35;;
43554;SDS011;35085;40.398;-3.702;2024-02-15T20:28:10;3.50;;;1.70;;
43554;SDS011;35085;40.398;-3.702;2024-02-15T20:38:18;5.20;;;1.58;;
43554;SDS011;35085;40.398;-3.702;2024-02-15T20:48:26;4.57;;;2.15;;
43554;SDS011;35085;40.398;-3.702;2024-02-15T20:58:27;4.53;;;2.10;;
43554;SDS011;35085;40.398;-3.702;2024-02-15T21:08:29;5.05;;;2.50;;
43554;SDS011;35085;40.398;-3.702;2024-02-15T21:18:39;6.88;;;2.30;;
43554;SDS011;35085;40.398;-3.702;2024-02-15T21:28:40;5.65;;;2.78;;
43554;SDS011;35085;40.398;-3.702;2024-02-15T21:38:46;4.95;;;2.05;;
43554;SDS011;35085;40.398;-3.702;2024-02-15T21:48:55;5.57;;;1.63;;
43554;SDS011;35085;40.398;-3.702;2024-02-15T21:59:04;5.27;;;1.50;;
43554;SDS011;35085;40.398;-3.702;2024-02-15T22:09:11;2.22;;;0.90;;
43554;SDS011;35085;40.398;-3.702;2024-02-15T22:19:19;2.22;;;0.95;;
43554;SDS011;35085;40.398;-3.702;2024-02-15T22:29:27;3.40;;;0.65;;
43554;SDS011;35085;40.398;-3.702;2024-02-15T22:39:35;1.55;;;0.45;;
43554;SDS011;35085;40.398;-3.702;2024-02-15T22:49:45;0.82;;;0.30;;
43554;SDS011;35085;40.398;-3.702;2024-02-15T22:59:53;1.33;;;0.50;;
43554;SDS011;35085;40.398;-3.702;2024-02-15T23:10:06;1.50;;;0.32;;
43554;SDS011;35085;40.398;-3.702;2024-02-15T23:20:14;1.15;;;0.43;;
43554;SDS011;35085;40.398;-3.702;2024-02-15T23:30:23;0.87;;;0.37;;
43554;SDS011;35085;40.398;-3.702;2024-02-15T23:40:31;0.75;;;0.20;;
43554;SDS011;35085;40.398;-3.702;2024-02-15T23:50:35;0.75;;;0.22;;
